Time;durP1;ratioP1;P1;durP2;ratioP2;P2;SDS_P1;SDS_P2;PMS_P1;PMS_P2;Temp;Humidity;BMP_temperature;BMP_pressure;BME280_temperature;BME280_humidity;BME280_pressure;Samples;Min_cycle;Max_cycle;Signal;HPM_P1;HPM_P2
2021/04/12 00:02:53;;;;;;;1.00;1.00;;;8.60;92.30;;;;;;5000782;28;20274;-69
2021/04/12 00:05:35;;;;;;;1.92;1.73;;;8.70;92.10;;;;;;5002464;28;20207;-67
2021/04/12 00:08:24;;;;;;;2.47;2.28;;;8.60;92.20;;;;;;4993175;28;20235;-68
2021/04/12 00:11:09;;;;;;;1.63;1.52;;;8.70;92.10;;;;;;4985644;28;20233;-67
2021/04/12 00:13:54;;;;;;;3.38;3.08;;;8.70;92.10;;;;;;4999711;28;20429;-67
2021/04/12 00:16:31;;;;;;;1.52;1.42;;;8.70;92.10;;;;;;4989830;28;20210;-68
2021/04/12 00:19:22;;;;;;;1.40;1.30;;;8.60;92.10;;;;;;4986107;28;20214;-67
2021/04/12 00:22:01;;;;;;;1.20;1.10;;;8.50;92.40;;;;;;4992794;28;20233;-68
2021/04/12 00:24:47;;;;;;;0.93;0.93;;;8.40;92.60;;;;;;4989280;28;20214;-68
2021/04/12 00:27:33;;;;;;;1.08;1.08;;;8.50;92.50;;;;;;4998267;28;20232;-69
2021/04/12 00:30:33;;;;;;;4.75;2.83;;;8.40;92.70;;;;;;4999921;28;20215;-69
2021/04/12 00:33:30;;;;;;;1.42;1.33;;;8.40;92.70;;;;;;4991761;28;20241;-68
2021/04/12 00:36:10;;;;;;;1.60;1.50;;;8.40;92.50;;;;;;4989734;28;20245;-68
2021/04/12 00:39:01;;;;;;;1.38;0.95;;;8.30;92.80;;;;;;4999738;28;20217;-68
2021/04/12 00:41:58;;;;;;;1.90;1.80;;;8.20;92.90;;;;;;5000840;28;20215;-69
2021/04/12 00:44:54;;;;;;;2.80;1.45;;;8.30;92.70;;;;;;5007017;28;20278;-67
2021/04/12 00:48:02;;;;;;;2.20;2.00;;;8.30;92.90;;;;;;4999429;28;20225;-68
2021/04/12 00:50:48;;;;;;;1.33;1.00;;;8.30;92.90;;;;;;4979222;28;20245;-68
2021/04/12 00:53:33;;;;;;;2.17;1.52;;;8.20;92.90;;;;;;4982006;28;20241;-67
2021/04/12 00:56:15;;;;;;;2.55;1.33;;;8.20;93.00;;;;;;4999791;28;20207;-67
2021/04/12 00:59:17;;;;;;;2.50;1.55;;;8.20;92.90;;;;;;4997201;28;20202;-66
2021/04/12 01:02:19;;;;;;;0.93;0.93;;;8.20;92.90;;;;;;4989036;28;20278;-67
2021/04/12 01:05:13;;;;;;;1.67;1.58;;;8.30;92.80;;;;;;4976948;28;20237;-67
2021/04/12 01:08:04;;;;;;;1.20;1.15;;;8.20;92.80;;;;;;5013830;28;20242;-68
2021/04/12 01:10:46;;;;;;;3.03;2.72;;;8.10;93.10;;;;;;5007125;28;20210;-68
2021/04/12 01:13:29;;;;;;;1.67;1.58;;;8.20;92.80;;;;;;4997513;28;20221;-68
2021/04/12 01:16:28;;;;;;;1.30;0.95;;;8.10;93.00;;;;;;5010672;28;20205;-70
2021/04/12 01:19:23;;;;;;;1.15;1.05;;;8.10;93.00;;;;;;5008921;28;20229;-67
2021/04/12 01:22:34;;;;;;;2.28;1.10;;;8.10;93.00;;;;;;4989924;28;20216;-68
2021/04/12 01:25:42;;;;;;;4.20;2.75;;;8.20;93.00;;;;;;4988754;28;20221;-67
2021/04/12 01:28:46;;;;;;;1.05;1.00;;;8.10;93.00;;;;;;4970791;28;20272;-68
2021/04/12 01:31:50;;;;;;;3.35;1.25;;;8.90;93.20;;;;;;4994238;28;20209;-66
2021/04/12 01:34:37;;;;;;;0.60;0.60;;;8.20;92.90;;;;;;5007930;28;20205;-67
2021/04/12 01:37:28;;;;;;;1.25;1.10;;;8.30;92.70;;;;;;5003038;28;20433;-67
2021/04/12 01:40:10;;;;;;;0.80;0.80;;;8.30;92.60;;;;;;4998667;28;20201;-67
2021/04/12 01:42:39;;;;;;;1.63;1.52;;;8.20;92.70;;;;;;4976435;28;20212;-67
2021/04/12 01:45:22;;;;;;;0.80;0.80;;;8.40;92.70;;;;;;4997960;28;20436;-67
2021/04/12 01:48:18;;;;;;;1.48;1.17;;;8.40;92.70;;;;;;5004564;28;20206;-67
2021/04/12 01:51:21;;;;;;;1.20;1.20;;;8.40;92.40;;;;;;4997850;28;20619;-67
2021/04/12 01:54:33;;;;;;;1.08;1.02;;;8.40;92.40;;;;;;4992215;28;20228;-67
2021/04/12 01:57:28;;;;;;;1.90;1.30;;;8.30;92.90;;;;;;4984418;28;20766;-68
2021/04/12 02:00:32;;;;;;;1.00;1.00;;;7.90;93.50;;;;;;4998605;28;20228;-67
2021/04/12 02:03:27;;;;;;;1.52;1.42;;;7.80;93.90;;;;;;4991499;28;20265;-67
2021/04/12 02:06:17;;;;;;;1.25;1.20;;;7.70;94.20;;;;;;4995504;28;20197;-68
2021/04/12 02:09:10;;;;;;;4.82;2.47;;;7.80;93.80;;;;;;4998129;28;20257;-66
2021/04/12 02:11:46;;;;;;;1.00;0.80;;;7.80;93.90;;;;;;4980378;28;20210;-66
2021/04/12 02:14:33;;;;;;;3.20;2.10;;;7.60;94.00;;;;;;4997918;28;20208;-67
2021/04/12 02:17:23;;;;;;;0.95;0.95;;;7.60;94.20;;;;;;4998393;28;20555;-67
2021/04/12 02:19:58;;;;;;;1.17;1.17;;;7.60;94.40;;;;;;4992400;28;20206;-68
2021/04/12 02:22:30;;;;;;;1.10;1.10;;;7.50;94.50;;;;;;4997809;28;20511;-66
2021/04/12 02:25:06;;;;;;;1.10;1.10;;;7.40;94.80;;;;;;4990118;28;20206;-67
2021/04/12 02:28:05;;;;;;;2.05;1.95;;;7.50;94.60;;;;;;4997262;28;20277;-66
2021/04/12 02:30:50;;;;;;;2.67;2.30;;;7.60;94.40;;;;;;5002445;28;20500;-67
2021/04/12 02:33:30;;;;;;;2.65;2.00;;;7.70;94.00;;;;;;5001140;28;20222;-66
2021/04/12 02:36:21;;;;;;;0.90;0.88;;;7.60;94.30;;;;;;4996574;28;20206;-66
2021/04/12 02:39:09;;;;;;;4.15;2.20;;;7.50;94.50;;;;;;4987824;28;20736;-67
2021/04/12 02:42:10;;;;;;;3.03;1.80;;;7.50;94.50;;;;;;4984586;28;20268;-68
2021/04/12 02:44:48;;;;;;;1.33;1.33;;;7.30;95.00;;;;;;5008698;28;20380;-67
2021/04/12 02:47:41;;;;;;;1.98;1.88;;;7.20;95.20;;;;;;4988084;28;20201;-67
2021/04/12 02:50:40;;;;;;;1.20;1.20;;;7.20;95.40;;;;;;4995357;28;20205;-67
2021/04/12 02:53:25;;;;;;;2.20;1.50;;;7.10;95.20;;;;;;4985634;28;20240;-66
2021/04/12 02:55:57;;;;;;;2.80;2.20;;;7.10;95.40;;;;;;4996021;28;20208;-66
2021/04/12 02:58:47;;;;;;;0.95;0.95;;;7.10;95.60;;;;;;4998914;28;20252;-67
2021/04/12 03:01:49;;;;;;;1.77;1.67;;;7.00;96.10;;;;;;5005034;28;20232;-68
2021/04/12 03:04:50;;;;;;;4.72;2.58;;;6.90;97.00;;;;;;4994660;28;20205;-66
2021/04/12 03:07:35;;;;;;;2.13;1.17;;;7.00;98.00;;;;;;4997565;28;20248;-67
2021/04/12 03:10:35;;;;;;;1.23;1.17;;;7.20;98.20;;;;;;5011914;28;20212;-67
2021/04/12 03:13:19;;;;;;;1.85;1.75;;;7.60;98.00;;;;;;4993493;28;20698;-66
2021/04/12 03:15:58;;;;;;;2.80;2.13;;;8.30;98.10;;;;;;5016417;28;20395;-67
2021/04/12 03:18:27;;;;;;;4.65;2.63;;;7.90;98.00;;;;;;5006755;28;20213;-67
2021/04/12 03:21:00;;;;;;;4.22;3.83;;;7.90;98.20;;;;;;5012304;28;20234;-68
2021/04/12 03:23:32;;;;;;;3.47;2.90;;;7.90;98.60;;;;;;5011263;28;20218;-69
2021/04/12 03:26:22;;;;;;;1.92;1.80;;;7.80;99.30;;;;;;5015268;28;20206;-67
2021/04/12 03:29:07;;;;;;;3.00;1.70;;;7.80;99.90;;;;;;5005195;28;20261;-67
2021/04/12 03:31:52;;;;;;;4.82;3.13;;;7.90;99.90;;;;;;4999047;28;20209;-72
2021/04/12 03:34:27;;;;;;;3.25;2.97;;;8.10;99.90;;;;;;5013764;28;20203;-68
2021/04/12 03:37:02;;;;;;;1.40;1.30;;;8.40;99.80;;;;;;4995756;28;20210;-68
2021/04/12 03:39:52;;;;;;;3.40;2.97;;;8.60;99.40;;;;;;4997161;28;20222;-69
2021/04/12 03:42:46;;;;;;;5.68;2.85;;;8.70;99.60;;;;;;5000193;28;20220;-69
2021/04/12 03:45:44;;;;;;;3.80;3.50;;;8.80;99.40;;;;;;5015623;28;20747;-68
2021/04/12 03:48:34;;;;;;;3.05;2.05;;;9.00;99.30;;;;;;4992232;28;20203;-68
2021/04/12 03:51:24;;;;;;;3.00;2.80;;;9.10;99.30;;;;;;5000745;28;20274;-67
2021/04/12 03:54:18;;;;;;;2.58;2.38;;;9.10;99.20;;;;;;5009871;28;20234;-68
2021/04/12 03:57:06;;;;;;;4.25;2.88;;;9.30;99.20;;;;;;5008123;28;20204;-69
2021/04/12 03:59:38;;;;;;;3.63;2.78;;;9.30;99.50;;;;;;5002006;28;20225;-69
2021/04/12 04:02:18;;;;;;;3.92;3.67;;;9.30;99.50;;;;;;4989439;28;20620;-68
2021/04/12 04:04:44;;;;;;;4.43;2.50;;;9.40;99.60;;;;;;5015649;28;20221;-69
2021/04/12 04:07:41;;;;;;;5.25;3.63;;;9.50;99.60;;;;;;5009460;28;20427;-68
2021/04/12 04:10:45;;;;;;;5.22;4.72;;;9.50;99.60;;;;;;4999759;28;20207;-68
2021/04/12 04:13:56;;;;;;;3.72;2.63;;;9.50;99.80;;;;;;5001947;28;20218;-68
2021/04/12 04:16:38;;;;;;;4.50;4.20;;;9.50;99.90;;;;;;4990408;28;20215;-67
2021/04/12 04:19:24;;;;;;;4.85;3.55;;;9.50;99.90;;;;;;4997851;28;20206;-68
2021/04/12 04:22:02;;;;;;;4.90;3.35;;;9.60;99.90;;;;;;5003155;28;20275;-68
2021/04/12 04:24:47;;;;;;;5.05;3.58;;;9.70;99.90;;;;;;5012539;28;20211;-68
2021/04/12 04:27:46;;;;;;;9.18;5.85;;;9.80;99.80;;;;;;5003463;28;20222;-68
2021/04/12 04:30:31;;;;;;;6.93;5.55;;;9.70;99.80;;;;;;4992998;28;20223;-68
2021/04/12 04:33:20;;;;;;;6.80;4.68;;;9.70;99.90;;;;;;5002478;28;20234;-67
2021/04/12 04:36:04;;;;;;;9.93;4.78;;;9.60;99.90;;;;;;5004568;28;20219;-67
2021/04/12 04:39:04;;;;;;;4.60;2.72;;;9.60;99.90;;;;;;4990262;28;20223;-67
2021/04/12 04:42:11;;;;;;;3.63;3.35;;;9.60;99.90;;;;;;4998815;28;20204;-66
2021/04/12 04:45:13;;;;;;;9.18;6.20;;;9.70;99.90;;;;;;5003222;28;20219;-67
2021/04/12 04:47:50;;;;;;;8.57;4.57;;;9.80;99.90;;;;;;4992711;28;20533;-67
2021/04/12 04:50:30;;;;;;;6.22;5.10;;;9.80;99.90;;;;;;4996997;28;20235;-68
2021/04/12 04:53:09;;;;;;;7.85;5.57;;;9.80;99.90;;;;;;5000978;28;20245;-68
2021/04/12 04:55:39;;;;;;;7.88;7.13;;;10.50;99.90;;;;;;5002208;28;20435;-69
2021/04/12 04:58:20;;;;;;;19.42;5.43;;;9.90;99.90;;;;;;5007967;28;20204;-68
2021/04/12 05:01:08;;;;;;;4.80;4.50;;;9.90;99.90;;;;;;4998389;28;20318;-68
2021/04/12 05:04:08;;;;;;;11.02;7.00;;;10.00;99.90;;;;;;5005346;28;20208;-68
2021/04/12 05:06:56;;;;;;;4.75;4.20;;;10.00;99.90;;;;;;4993753;28;20391;-71
2021/04/12 05:09:41;;;;;;;6.18;5.00;;;10.00;99.60;;;;;;4999492;28;20279;-68
2021/04/12 05:12:20;;;;;;;4.68;4.25;;;10.00;99.40;;;;;;5000977;28;20205;-68
2021/04/12 05:15:20;;;;;;;4.43;3.35;;;10.00;99.30;;;;;;5001433;28;20220;-69
2021/04/12 05:17:58;;;;;;;4.82;3.95;;;10.10;98.80;;;;;;5000736;28;20222;-69
2021/04/12 05:20:58;;;;;;;10.50;5.55;;;10.20;98.30;;;;;;5001183;28;20216;-68
2021/04/12 05:24:04;;;;;;;4.15;3.85;;;10.20;98.10;;;;;;4987588;28;20244;-68
2021/04/12 05:26:35;;;;;;;6.20;4.50;;;10.20;98.30;;;;;;4970669;28;20294;-68
2021/04/12 05:29:07;;;;;;;4.13;3.80;;;10.20;98.10;;;;;;5002264;28;20209;-70
2021/04/12 05:31:36;;;;;;;3.63;3.33;;;10.10;98.30;;;;;;4997502;28;20476;-68
2021/04/12 05:34:18;;;;;;;5.65;3.03;;;10.00;98.40;;;;;;4996148;28;20247;-70
2021/04/12 05:37:28;;;;;;;6.40;4.50;;;10.00;98.50;;;;;;5002369;28;20242;-68
2021/04/12 05:40:13;;;;;;;6.93;4.05;;;10.00;98.60;;;;;;4979066;28;20705;-69
2021/04/12 05:43:24;;;;;;;4.60;4.20;;;10.10;98.50;;;;;;5004601;28;20223;-68
2021/04/12 05:46:13;;;;;;;7.38;5.00;;;10.00;98.20;;;;;;4989093;28;20263;-67
2021/04/12 05:48:57;;;;;;;4.72;4.00;;;10.00;98.20;;;;;;5002128;28;20219;-67
2021/04/12 05:51:45;;;;;;;4.13;3.70;;;10.00;98.00;;;;;;5002076;28;20251;-67
2021/04/12 05:54:35;;;;;;;4.63;3.47;;;10.00;98.00;;;;;;4982243;28;20236;-66
2021/04/12 05:57:13;;;;;;;5.32;4.20;;;10.10;97.90;;;;;;4998314;28;20204;-69
2021/04/12 05:59:55;;;;;;;6.93;5.00;;;10.20;97.60;;;;;;4974225;28;20212;-68
2021/04/12 06:02:57;;;;;;;4.20;3.15;;;10.20;97.40;;;;;;4967826;28;20204;-69
2021/04/12 06:05:53;;;;;;;4.22;3.83;;;10.20;97.50;;;;;;4997414;28;20238;-68
2021/04/12 06:08:50;;;;;;;4.45;2.85;;;10.10;97.70;;;;;;4999408;28;20299;-68
2021/04/12 06:11:19;;;;;;;3.40;3.20;;;10.00;97.70;;;;;;4991090;28;20443;-67
2021/04/12 06:13:59;;;;;;;4.95;4.47;;;10.10;97.70;;;;;;5009376;28;20296;-68
2021/04/12 06:16:52;;;;;;;3.00;2.60;;;10.10;97.80;;;;;;5014827;28;20215;-68
2021/04/12 06:20:05;;;;;;;3.17;2.92;;;10.10;97.70;;;;;;5001719;28;20231;-69
2021/04/12 06:22:44;;;;;;;4.38;3.72;;;10.10;97.70;;;;;;4987299;28;20279;-68
2021/04/12 06:25:45;;;;;;;5.20;4.57;;;10.00;98.30;;;;;;5002143;28;20215;-69
2021/04/12 06:28:30;;;;;;;5.00;4.40;;;10.00;97.90;;;;;;4996504;28;20468;-68
2021/04/12 06:31:26;;;;;;;5.40;5.00;;;10.00;98.00;;;;;;5000539;28;20231;-68
2021/04/12 06:34:34;;;;;;;3.60;3.30;;;9.90;98.10;;;;;;5002078;28;20228;-69
2021/04/12 06:38:06;;;;;;;3.10;2.90;;;9.80;98.30;;;;;;4988254;28;20209;-68
2021/04/12 06:41:03;;;;;;;7.28;5.93;;;9.70;98.40;;;;;;4935377;29;20216;-69
2021/04/12 06:44:23;;;;;;;5.07;4.10;;;9.70;98.40;;;;;;4935791;29;20450;-69
2021/04/12 06:47:13;;;;;;;6.72;3.90;;;9.70;98.30;;;;;;4972811;28;20306;-69
2021/04/12 06:50:01;;;;;;;2.40;2.20;;;9.50;98.30;;;;;;5001465;28;20213;-68
2021/04/12 06:52:48;;;;;;;1.77;1.67;;;9.40;98.50;;;;;;5003065;28;20294;-68
2021/04/12 06:55:19;;;;;;;3.50;2.95;;;9.30;98.70;;;;;;5000300;28;20255;-69
2021/04/12 06:58:24;;;;;;;6.50;2.75;;;9.20;98.80;;;;;;4996304;28;20207;-68
2021/04/12 07:01:18;;;;;;;2.88;2.22;;;9.20;98.80;;;;;;4994759;28;20242;-68
2021/04/12 07:04:05;;;;;;;2.90;1.83;;;9.20;98.60;;;;;;5011416;28;20215;-69
2021/04/12 07:06:50;;;;;;;1.70;1.60;;;9.00;98.80;;;;;;5000152;28;20291;-67
2021/04/12 07:09:28;;;;;;;2.60;2.28;;;9.10;98.80;;;;;;4999160;28;20218;-69
2021/04/12 07:12:11;;;;;;;2.53;2.25;;;9.10;98.50;;;;;;4987617;28;20206;-70
2021/04/12 07:14:49;;;;;;;2.70;1.50;;;8.90;98.90;;;;;;4994872;28;20265;-69
2021/04/12 07:17:47;;;;;;;2.65;1.75;;;8.80;98.90;;;;;;5011524;28;20402;-70
2021/04/12 07:20:58;;;;;;;1.88;1.10;;;9.00;98.60;;;;;;5012955;28;20201;-68
2021/04/12 07:23:43;;;;;;;4.05;1.50;;;9.00;98.40;;;;;;5005629;28;20234;-68
2021/04/12 07:26:22;;;;;;;5.15;1.80;;;9.00;98.50;;;;;;5014383;28;20203;-68
2021/04/12 07:29:14;;;;;;;2.00;1.90;;;9.00;98.20;;;;;;5007397;28;20506;-68
2021/04/12 07:32:05;;;;;;;1.75;1.65;;;8.90;98.00;;;;;;5002492;28;20210;-69
2021/04/12 07:34:56;;;;;;;2.30;2.10;;;9.10;98.10;;;;;;5007433;28;20540;-68
2021/04/12 07:38:00;;;;;;;1.52;0.88;;;9.00;98.10;;;;;;5001148;28;20222;-70
2021/04/12 07:40:45;;;;;;;2.58;2.40;;;8.80;98.50;;;;;;4989096;28;20211;-69
2021/04/12 07:43:31;;;;;;;3.30;3.10;;;8.80;98.60;;;;;;5011512;28;20501;-69
2021/04/12 07:46:01;;;;;;;4.28;2.53;;;8.70;98.70;;;;;;5010612;28;20225;-69
2021/04/12 07:48:47;;;;;;;5.13;1.75;;;8.70;98.90;;;;;;4990732;28;20502;-68
2021/04/12 07:51:20;;;;;;;2.80;2.15;;;8.70;98.90;;;;;;5005716;28;20337;-69
2021/04/12 07:54:08;;;;;;;1.10;1.10;;;8.60;98.90;;;;;;5011248;28;20449;-68
2021/04/12 07:56:59;;;;;;;1.70;1.58;;;8.60;98.70;;;;;;5008277;28;20277;-69
2021/04/12 07:59:38;;;;;;;1.65;0.90;;;8.60;99.30;;;;;;4991874;28;20261;-70
2021/04/12 08:02:19;;;;;;;3.80;1.83;;;8.60;98.70;;;;;;5001649;28;20528;-71
2021/04/12 08:05:15;;;;;;;1.27;1.20;;;8.60;98.40;;;;;;5000500;28;20229;-69
2021/04/12 08:07:49;;;;;;;1.45;1.35;;;8.60;98.30;;;;;;5008827;28;20235;-69
2021/04/12 08:10:53;;;;;;;1.83;1.73;;;8.60;98.40;;;;;;5009069;28;20210;-69
2021/04/12 08:14:09;;;;;;;0.80;0.80;;;8.50;98.20;;;;;;5004667;28;20260;-68
2021/04/12 08:17:15;;;;;;;3.38;1.42;;;8.40;98.40;;;;;;5002040;28;20218;-69
2021/04/12 08:20:19;;;;;;;1.58;1.25;;;8.40;98.00;;;;;;4987638;28;20204;-70
2021/04/12 08:23:14;;;;;;;2.15;1.73;;;8.40;97.90;;;;;;4985439;28;20323;-70
2021/04/12 08:26:10;;;;;;;1.88;1.77;;;8.40;98.00;;;;;;4997026;28;20214;-70
2021/04/12 08:29:14;;;;;;;0.85;0.85;;;8.60;97.90;;;;;;4999174;28;20226;-69
2021/04/12 08:32:07;;;;;;;0.70;0.70;;;8.70;97.20;;;;;;4991134;28;20212;-70
2021/04/12 08:35:13;;;;;;;1.27;1.17;;;8.80;96.70;;;;;;4999275;28;20235;-70
2021/04/12 08:37:40;;;;;;;1.25;1.13;;;8.80;96.70;;;;;;4982892;28;20214;-69
2021/04/12 08:40:23;;;;;;;1.08;0.85;;;8.70;96.90;;;;;;4999753;28;20212;-71
2021/04/12 08:42:56;;;;;;;0.85;0.73;;;8.60;97.00;;;;;;4990623;28;20222;-69
2021/04/12 08:45:51;;;;;;;1.02;0.93;;;8.60;97.00;;;;;;5012900;28;20397;-71
2021/04/12 08:48:20;;;;;;;1.52;1.42;;;8.60;97.00;;;;;;4983879;28;20209;-70
2021/04/12 08:50:47;;;;;;;0.90;0.90;;;8.70;96.70;;;;;;4988135;28;20442;-69
2021/04/12 08:53:46;;;;;;;0.82;0.40;;;8.70;96.50;;;;;;4995770;28;20255;-69
2021/04/12 08:56:31;;;;;;;1.67;0.60;;;8.40;96.70;;;;;;4987175;28;20466;-69
2021/04/12 08:59:25;;;;;;;0.73;0.73;;;8.40;97.10;;;;;;4987869;28;20210;-71
2021/04/12 09:02:43;;;;;;;0.77;0.77;;;8.30;97.00;;;;;;4999062;28;20282;-69
2021/04/12 09:05:24;;;;;;;0.70;0.70;;;8.20;97.30;;;;;;4968835;28;20256;-70
2021/04/12 09:08:13;;;;;;;1.27;1.27;;;8.20;97.40;;;;;;4989752;28;20232;-69
2021/04/12 09:11:24;;;;;;;1.67;0.80;;;8.20;97.30;;;;;;4995231;28;20208;-70
2021/04/12 09:13:54;;;;;;;0.68;0.47;;;8.30;97.20;;;;;;4992577;28;20230;-69
2021/04/12 09:16:39;;;;;;;0.63;0.63;;;8.40;96.90;;;;;;4992793;28;20214;-70
2021/04/12 09:19:34;;;;;;;0.65;0.65;;;8.60;96.50;;;;;;4988001;28;20237;-70
2021/04/12 09:22:34;;;;;;;0.40;0.40;;;8.60;96.40;;;;;;4985786;28;20394;-70
2021/04/12 09:25:20;;;;;;;0.63;0.63;;;8.60;96.20;;;;;;4992604;28;20202;-70
2021/04/12 09:28:06;;;;;;;0.70;0.70;;;8.60;96.30;;;;;;5003621;28;20273;-69
2021/04/12 09:30:54;;;;;;;0.57;0.57;;;8.80;96.20;;;;;;5001370;28;20215;-70
2021/04/12 09:33:20;;;;;;;0.60;0.60;;;8.90;95.60;;;;;;4998170;28;20233;-69
2021/04/12 09:36:10;;;;;;;0.68;0.68;;;8.90;95.60;;;;;;4998595;28;20278;-68
2021/04/12 09:38:45;;;;;;;1.85;0.90;;;8.70;95.90;;;;;;4980220;28;20505;-69
2021/04/12 09:41:31;;;;;;;0.80;0.80;;;8.70;96.00;;;;;;4994941;28;20220;-69
2021/04/12 09:44:01;;;;;;;1.40;1.30;;;8.70;95.90;;;;;;4993469;28;20232;-71
2021/04/12 09:46:52;;;;;;;0.93;0.68;;;8.40;96.30;;;;;;4998034;28;20199;-68
2021/04/12 09:49:37;;;;;;;0.85;0.85;;;8.30;96.80;;;;;;4998780;28;20305;-71
2021/04/12 09:52:22;;;;;;;0.50;0.50;;;8.30;97.60;;;;;;5004327;28;20242;-69
2021/04/12 09:55:31;;;;;;;0.90;0.90;;;8.30;97.70;;;;;;4996372;28;20749;-70
2021/04/12 09:58:35;;;;;;;0.95;0.68;;;8.20;97.70;;;;;;4986072;28;20460;-68
2021/04/12 10:02:02;;;;;;;0.70;0.57;;;8.20;97.50;;;;;;4994836;28;20214;-69
2021/04/12 10:04:58;;;;;;;0.75;0.75;;;8.20;98.70;;;;;;4938148;29;20287;-70
2021/04/12 10:07:48;;;;;;;0.68;0.50;;;8.10;98.20;;;;;;4992466;28;20229;-70
2021/04/12 10:10:17;;;;;;;0.52;0.52;;;8.10;97.80;;;;;;4993998;28;20252;-71
2021/04/12 10:13:15;;;;;;;0.50;0.50;;;8.10;97.60;;;;;;5011379;28;20208;-70
2021/04/12 10:15:50;;;;;;;1.58;1.48;;;8.10;97.60;;;;;;5008405;28;20492;-71
2021/04/12 10:18:34;;;;;;;0.40;0.40;;;8.10;97.80;;;;;;5004825;28;20215;-70
2021/04/12 10:21:22;;;;;;;0.65;0.65;;;8.00;97.70;;;;;;4996843;28;20209;-69
2021/04/12 10:24:03;;;;;;;0.50;0.50;;;8.10;97.50;;;;;;4964690;28;20210;-70
2021/04/12 10:26:55;;;;;;;0.50;0.50;;;8.00;97.40;;;;;;4997659;28;20236;-69
2021/04/12 10:29:42;;;;;;;0.82;0.82;;;7.90;97.20;;;;;;4997345;28;20198;-69
2021/04/12 10:32:24;;;;;;;0.60;0.60;;;7.80;97.30;;;;;;4994601;28;20430;-70
2021/04/12 10:35:15;;;;;;;0.40;0.40;;;7.70;97.60;;;;;;4987288;28;20238;-72
2021/04/12 10:38:03;;;;;;;0.70;0.70;;;7.70;97.60;;;;;;4990305;28;20440;-71
2021/04/12 10:40:46;;;;;;;0.68;0.68;;;7.70;97.50;;;;;;4979637;28;20253;-70
2021/04/12 10:43:44;;;;;;;1.38;1.27;;;7.70;97.40;;;;;;4980714;28;20706;-71
2021/04/12 10:46:23;;;;;;;0.82;0.77;;;7.60;97.60;;;;;;4986084;28;20213;-70
2021/04/12 10:49:19;;;;;;;1.92;0.70;;;7.60;97.80;;;;;;4982724;28;20206;-69
2021/04/12 10:52:28;;;;;;;0.47;0.47;;;7.70;97.80;;;;;;4986279;28;20312;-69
2021/04/12 10:55:08;;;;;;;1.05;1.05;;;7.50;97.80;;;;;;4981454;28;20306;-69
2021/04/12 10:57:41;;;;;;;0.70;0.70;;;7.50;97.80;;;;;;4980459;28;20210;-68
2021/04/12 11:00:25;;;;;;;1.20;1.10;;;7.40;98.20;;;;;;5003115;28;20205;-69
2021/04/12 11:02:57;;;;;;;0.93;0.93;;;7.40;98.10;;;;;;5006468;28;20595;-68
2021/04/12 11:05:29;;;;;;;0.73;0.57;;;7.50;97.50;;;;;;4995625;28;20217;-69
2021/04/12 11:08:07;;;;;;;2.42;1.27;;;7.60;97.00;;;;;;4990324;28;20235;-69
2021/04/12 11:11:16;;;;;;;1.70;1.60;;;7.50;96.90;;;;;;4995142;28;20268;-72
2021/04/12 11:14:06;;;;;;;1.27;1.17;;;7.60;96.80;;;;;;4998400;28;20468;-69
2021/04/12 11:17:15;;;;;;;1.45;1.20;;;7.50;96.20;;;;;;4997459;28;20219;-70
2021/04/12 11:19:58;;;;;;;1.15;1.00;;;7.40;96.60;;;;;;4968474;28;20211;-69
2021/04/12 11:22:41;;;;;;;1.42;1.33;;;7.40;96.80;;;;;;4984717;28;20213;-69
2021/04/12 11:25:18;;;;;;;1.25;0.70;;;7.30;96.70;;;;;;4984307;28;20512;-68
2021/04/12 11:27:45;;;;;;;0.60;0.60;;;7.40;96.60;;;;;;4991899;28;20213;-70
2021/04/12 11:30:31;;;;;;;1.00;1.00;;;7.30;96.50;;;;;;4984506;28;20396;-68
2021/04/12 11:33:34;;;;;;;0.95;0.88;;;7.40;96.30;;;;;;5005090;28;20288;-71
2021/04/12 11:36:26;;;;;;;4.50;1.58;;;7.30;96.30;;;;;;5000140;28;20220;-68
2021/04/12 11:39:05;;;;;;;0.80;0.80;;;7.30;96.30;;;;;;4982638;28;20217;-67
2021/04/12 11:41:59;;;;;;;0.82;0.60;;;7.40;96.30;;;;;;4988913;28;20470;-69
2021/04/12 11:45:05;;;;;;;1.67;1.02;;;7.40;96.00;;;;;;4973925;28;20546;-72
2021/04/12 11:47:37;;;;;;;1.10;0.90;;;7.30;95.90;;;;;;4994726;28;20216;-69
2021/04/12 11:50:07;;;;;;;1.58;1.48;;;7.40;95.70;;;;;;4986787;28;20418;-69
2021/04/12 11:52:44;;;;;;;1.95;1.85;;;7.50;96.10;;;;;;4992838;28;20309;-71
2021/04/12 11:55:16;;;;;;;1.83;1.60;;;7.50;95.90;;;;;;5009722;28;20212;-70
2021/04/12 11:58:03;;;;;;;1.40;1.33;;;7.40;96.20;;;;;;5007603;28;20554;-70
2021/04/12 12:00:55;;;;;;;1.17;0.70;;;7.30;96.20;;;;;;4994049;28;20571;-70
2021/04/12 12:03:53;;;;;;;1.40;1.30;;;7.20;96.40;;;;;;4999773;28;20216;-72
2021/04/12 12:06:50;;;;;;;0.70;0.70;;;7.00;96.50;;;;;;4995715;28;20304;-69
2021/04/12 12:09:43;;;;;;;1.30;1.30;;;7.00;96.50;;;;;;5000051;28;20207;-69
2021/04/12 12:12:29;;;;;;;0.85;0.73;;;7.10;96.50;;;;;;4998027;28;20220;-70
2021/04/12 12:15:13;;;;;;;3.70;1.75;;;6.90;96.70;;;;;;4984354;28;20237;-68
2021/04/12 12:17:58;;;;;;;2.25;1.00;;;6.80;97.00;;;;;;4984105;28;20206;-71
2021/04/12 12:20:49;;;;;;;0.40;0.40;;;6.90;96.80;;;;;;4981677;28;20520;-69
2021/04/12 12:23:40;;;;;;;2.05;1.10;;;7.00;96.50;;;;;;4967006;28;20244;-69
2021/04/12 12:26:24;;;;;;;1.23;1.23;;;7.30;96.00;;;;;;4993518;28;20204;-69
2021/04/12 12:29:06;;;;;;;1.25;1.15;;;7.30;95.90;;;;;;5003922;28;20210;-71
2021/04/12 12:31:45;;;;;;;1.75;0.88;;;7.20;95.80;;;;;;5003501;28;20209;-70
2021/04/12 12:34:50;;;;;;;1.35;1.25;;;7.20;95.80;;;;;;5008952;28;20247;-68
2021/04/12 12:37:48;;;;;;;0.60;0.60;;;7.20;95.50;;;;;;4939750;29;20254;-68
2021/04/12 12:40:24;;;;;;;0.60;0.60;;;7.30;95.40;;;;;;4935755;29;20235;-69
2021/04/12 12:43:00;;;;;;;1.13;1.02;;;7.10;95.30;;;;;;4992420;28;20448;-72
2021/04/12 12:45:45;;;;;;;1.20;1.10;;;6.80;95.50;;;;;;4981459;28;20595;-69
2021/04/12 12:48:19;;;;;;;1.52;1.42;;;6.80;95.70;;;;;;4982405;28;20240;-68
2021/04/12 12:51:08;;;;;;;2.58;2.47;;;6.70;95.60;;;;;;4997862;28;20264;-69
2021/04/12 12:53:37;;;;;;;1.55;1.25;;;6.70;95.50;;;;;;5001692;28;20225;-69
2021/04/12 12:56:25;;;;;;;0.93;0.93;;;6.70;95.70;;;;;;5001884;28;20205;-71
2021/04/12 12:59:05;;;;;;;1.23;0.80;;;6.80;95.80;;;;;;5000534;28;20243;-69
2021/04/12 13:01:37;;;;;;;3.75;1.75;;;6.80;95.90;;;;;;4975196;28;20217;-69
2021/04/12 13:04:19;;;;;;;1.95;1.13;;;6.70;95.80;;;;;;5000147;28;20548;-72
2021/04/12 13:06:51;;;;;;;1.10;1.02;;;6.60;96.40;;;;;;4998516;28;20238;-70
2021/04/12 13:09:31;;;;;;;1.92;1.13;;;6.50;97.00;;;;;;5001469;28;20413;-69
2021/04/12 13:12:13;;;;;;;1.40;1.35;;;6.50;96.70;;;;;;4985905;28;20220;-68
2021/04/12 13:14:49;;;;;;;1.45;1.35;;;6.60;96.20;;;;;;4991001;28;20483;-69
2021/04/12 13:17:35;;;;;;;0.55;0.55;;;6.70;95.90;;;;;;4999472;28;20193;-68
2021/04/12 13:20:34;;;;;;;1.15;1.05;;;6.70;96.30;;;;;;4986214;28;20388;-68
2021/04/12 13:23:20;;;;;;;0.40;0.40;;;6.70;97.00;;;;;;4980163;28;20217;-70
2021/04/12 13:25:50;;;;;;;2.25;2.15;;;6.20;98.90;;;;;;4991025;28;20205;-69
2021/04/12 13:28:37;;;;;;;0.55;0.55;;;6.00;99.50;;;;;;5005974;28;20258;-69
2021/04/12 13:31:10;;;;;;;0.70;0.70;;;5.70;99.80;;;;;;4995040;28;20512;-69
2021/04/12 13:33:41;;;;;;;0.50;0.50;;;5.50;99.90;;;;;;5003641;28;20295;-67
2021/04/12 13:36:14;;;;;;;0.70;0.70;;;5.40;99.90;;;;;;4985413;28;20468;-69
2021/04/12 13:38:43;;;;;;;1.02;0.98;;;5.40;99.90;;;;;;4987900;28;20202;-69
2021/04/12 13:41:16;;;;;;;1.20;1.10;;;5.30;99.90;;;;;;4998300;28;20216;-67
2021/04/12 13:43:47;;;;;;;1.55;1.45;;;5.20;99.90;;;;;;4979827;28;20241;-69
2021/04/12 13:46:20;;;;;;;0.50;0.50;;;5.10;99.90;;;;;;4993325;28;20465;-70
2021/04/12 13:49:10;;;;;;;0.60;0.60;;;5.10;99.90;;;;;;5002327;28;20238;-70
2021/04/12 13:51:42;;;;;;;0.85;0.85;;;5.10;99.90;;;;;;4997553;28;20416;-69
2021/04/12 13:54:21;;;;;;;1.40;0.93;;;5.20;99.90;;;;;;4997095;28;20229;-69
2021/04/12 13:56:53;;;;;;;1.00;0.77;;;5.20;99.90;;;;;;4996293;28;20492;-68
2021/04/12 13:59:24;;;;;;;0.70;0.70;;;5.10;99.90;;;;;;4996816;28;20232;-69
2021/04/12 14:02:15;;;;;;;0.50;0.50;;;5.10;99.90;;;;;;5001770;28;20209;-70
2021/04/12 14:04:48;;;;;;;0.40;0.40;;;4.90;99.90;;;;;;5004524;28;20412;-69
2021/04/12 14:07:37;;;;;;;2.90;1.13;;;5.00;99.90;;;;;;4992484;28;20474;-70
2021/04/12 14:10:35;;;;;;;3.80;1.58;;;5.00;99.90;;;;;;4998797;28;20393;-69
2021/04/12 14:13:18;;;;;;;4.63;1.13;;;4.90;99.90;;;;;;5001219;28;20209;-69
2021/04/12 14:15:45;;;;;;;1.00;1.00;;;4.90;99.90;;;;;;5003500;28;20298;-70
2021/04/12 14:18:26;;;;;;;1.05;1.02;;;4.80;99.90;;;;;;5005471;28;20209;-69
2021/04/12 14:21:01;;;;;;;0.70;0.70;;;4.80;99.90;;;;;;4988600;28;20506;-69
2021/04/12 14:23:41;;;;;;;0.40;0.40;;;4.90;99.90;;;;;;4997376;28;20260;-69
2021/04/12 14:26:20;;;;;;;0.45;0.45;;;5.00;99.90;;;;;;5001345;28;20211;-68
2021/04/12 14:28:49;;;;;;;1.65;1.55;;;5.10;99.90;;;;;;4998731;28;20396;-68
2021/04/12 14:31:22;;;;;;;0.60;0.55;;;5.20;99.90;;;;;;4988935;28;20209;-70
2021/04/12 14:33:59;;;;;;;1.70;0.88;;;5.30;99.90;;;;;;4999512;28;20269;-67
2021/04/12 14:36:29;;;;;;;1.65;1.55;;;5.20;99.90;;;;;;4991848;28;20212;-68
2021/04/12 14:39:08;;;;;;;1.60;1.50;;;5.30;99.90;;;;;;4986373;28;20198;-68
2021/04/12 14:41:42;;;;;;;0.80;0.80;;;5.20;99.90;;;;;;4996049;28;20209;-69